sensor_id;sensor_type;location;lat;lon;timestamp;P1;durP1;ratioP1;P2;durP2;ratioP2
53881;SDS011;39794;55.782;37.452;2023-01-13T00:01:29;8.70;;;4.30;;
53881;SDS011;39794;55.782;37.452;2023-01-13T00:03:59;7.22;;;4.38;;
53881;SDS011;39794;55.782;37.452;2023-01-13T00:06:28;7.55;;;4.53;;
53881;SDS011;39794;55.782;37.452;2023-01-13T00:08:56;7.13;;;5.00;;
53881;SDS011;39794;55.782;37.452;2023-01-13T00:11:24;8.88;;;3.90;;
53881;SDS011;39794;55.782;37.452;2023-01-13T00:13:55;5.72;;;3.67;;
53881;SDS011;39794;55.782;37.452;2023-01-13T00:16:24;7.00;;;3.90;;
53881;SDS011;39794;55.782;37.452;2023-01-13T00:18:52;7.00;;;3.95;;
53881;SDS011;39794;55.782;37.452;2023-01-13T00:21:22;8.38;;;4.00;;
53881;SDS011;39794;55.782;37.452;2023-01-13T00:23:52;6.57;;;4.43;;
53881;SDS011;39794;55.782;37.452;2023-01-13T00:26:22;6.45;;;4.10;;
53881;SDS011;39794;55.782;37.452;2023-01-13T00:28:54;7.00;;;3.88;;
53881;SDS011;39794;55.782;37.452;2023-01-13T00:31:27;6.32;;;4.05;;
53881;SDS011;39794;55.782;37.452;2023-01-13T00:33:56;5.72;;;3.72;;
53881;SDS011;39794;55.782;37.452;2023-01-13T00:36:32;9.80;;;3.60;;
53881;SDS011;39794;55.782;37.452;2023-01-13T00:39:03;6.43;;;3.78;;
53881;SDS011;39794;55.782;37.452;2023-01-13T00:41:32;5.50;;;3.58;;
53881;SDS011;39794;55.782;37.452;2023-01-13T00:44:14;5.85;;;3.95;;
53881;SDS011;39794;55.782;37.452;2023-01-13T00:46:46;4.55;;;3.38;;
53881;SDS011;39794;55.782;37.452;2023-01-13T00:49:14;6.25;;;4.05;;
53881;SDS011;39794;55.782;37.452;2023-01-13T00:51:44;6.85;;;4.47;;
53881;SDS011;39794;55.782;37.452;2023-01-13T00:54:12;5.75;;;3.10;;
53881;SDS011;39794;55.782;37.452;2023-01-13T00:56:41;5.13;;;3.63;;
53881;SDS011;39794;55.782;37.452;2023-01-13T00:59:09;6.95;;;3.58;;
53881;SDS011;39794;55.782;37.452;2023-01-13T01:01:39;9.07;;;3.70;;
53881;SDS011;39794;55.782;37.452;2023-01-13T01:04:08;7.45;;;3.95;;
53881;SDS011;39794;55.782;37.452;2023-01-13T01:06:40;4.88;;;3.25;;
53881;SDS011;39794;55.782;37.452;2023-01-13T01:09:15;7.30;;;4.47;;
53881;SDS011;39794;55.782;37.452;2023-01-13T01:11:46;5.72;;;3.28;;
53881;SDS011;39794;55.782;37.452;2023-01-13T01:14:15;4.32;;;3.10;;
53881;SDS011;39794;55.782;37.452;2023-01-13T01:16:50;4.80;;;3.50;;
53881;SDS011;39794;55.782;37.452;2023-01-13T01:19:21;5.60;;;3.67;;
53881;SDS011;39794;55.782;37.452;2023-01-13T01:21:50;12.23;;;3.72;;
53881;SDS011;39794;55.782;37.452;2023-01-13T01:24:20;7.50;;;3.00;;
53881;SDS011;39794;55.782;37.452;2023-01-13T01:26:48;7.45;;;3.80;;
53881;SDS011;39794;55.782;37.452;2023-01-13T01:29:17;6.07;;;3.47;;
53881;SDS011;39794;55.782;37.452;2023-01-13T01:31:45;6.03;;;4.00;;
53881;SDS011;39794;55.782;37.452;2023-01-13T01:34:14;6.30;;;4.28;;
53881;SDS011;39794;55.782;37.452;2023-01-13T01:36:45;3.35;;;2.88;;
53881;SDS011;39794;55.782;37.452;2023-01-13T01:39:16;7.82;;;4.15;;
53881;SDS011;39794;55.782;37.452;2023-01-13T01:41:46;9.05;;;3.83;;
53881;SDS011;39794;55.782;37.452;2023-01-13T01:47:21;7.20;;;3.60;;
53881;SDS011;39794;55.782;37.452;2023-01-13T01:49:51;6.15;;;3.60;;
53881;SDS011;39794;55.782;37.452;2023-01-13T01:52:20;7.68;;;4.07;;
53881;SDS011;39794;55.782;37.452;2023-01-13T01:54:53;8.68;;;3.85;;
53881;SDS011;39794;55.782;37.452;2023-01-13T01:57:27;7.40;;;3.40;;
53881;SDS011;39794;55.782;37.452;2023-01-13T02:00:00;6.60;;;3.40;;
53881;SDS011;39794;55.782;37.452;2023-01-13T02:02:39;5.22;;;3.08;;
53881;SDS011;39794;55.782;37.452;2023-01-13T02:05:08;7.68;;;3.53;;
53881;SDS011;39794;55.782;37.452;2023-01-13T02:07:37;4.85;;;3.13;;
53881;SDS011;39794;55.782;37.452;2023-01-13T02:10:08;4.18;;;2.90;;
53881;SDS011;39794;55.782;37.452;2023-01-13T02:12:40;4.85;;;2.80;;
53881;SDS011;39794;55.782;37.452;2023-01-13T02:15:10;5.90;;;3.40;;
53881;SDS011;39794;55.782;37.452;2023-01-13T02:29:55;3.63;;;2.80;;
53881;SDS011;39794;55.782;37.452;2023-01-13T02:32:49;4.20;;;3.20;;
53881;SDS011;39794;55.782;37.452;2023-01-13T02:35:28;5.63;;;3.40;;
53881;SDS011;39794;55.782;37.452;2023-01-13T02:38:00;5.10;;;2.95;;
53881;SDS011;39794;55.782;37.452;2023-01-13T02:40:32;5.85;;;3.03;;
53881;SDS011;39794;55.782;37.452;2023-01-13T02:43:03;4.05;;;3.10;;
53881;SDS011;39794;55.782;37.452;2023-01-13T02:45:56;6.10;;;2.72;;
53881;SDS011;39794;55.782;37.452;2023-01-13T02:48:29;6.15;;;3.45;;
53881;SDS011;39794;55.782;37.452;2023-01-13T02:50:59;5.43;;;3.40;;
53881;SDS011;39794;55.782;37.452;2023-01-13T02:53:33;4.97;;;3.00;;
53881;SDS011;39794;55.782;37.452;2023-01-13T02:56:04;5.43;;;3.13;;
53881;SDS011;39794;55.782;37.452;2023-01-13T02:58:34;5.82;;;3.13;;
53881;SDS011;39794;55.782;37.452;2023-01-13T03:01:05;5.00;;;3.20;;
53881;SDS011;39794;55.782;37.452;2023-01-13T03:03:33;4.00;;;3.05;;
53881;SDS011;39794;55.782;37.452;2023-01-13T03:06:05;4.63;;;3.10;;
53881;SDS011;39794;55.782;37.452;2023-01-13T03:08:46;10.02;;;3.67;;
53881;SDS011;39794;55.782;37.452;2023-01-13T03:11:17;8.25;;;3.90;;
53881;SDS011;39794;55.782;37.452;2023-01-13T03:13:50;6.20;;;3.35;;
53881;SDS011;39794;55.782;37.452;2023-01-13T03:16:28;4.45;;;3.05;;
53881;SDS011;39794;55.782;37.452;2023-01-13T03:19:02;4.68;;;3.33;;
53881;SDS011;39794;55.782;37.452;2023-01-13T03:21:38;8.05;;;3.42;;
53881;SDS011;39794;55.782;37.452;2023-01-13T03:24:10;5.25;;;3.20;;
53881;SDS011;39794;55.782;37.452;2023-01-13T03:26:42;9.50;;;4.00;;
53881;SDS011;39794;55.782;37.452;2023-01-13T03:29:17;5.97;;;3.83;;
53881;SDS011;39794;55.782;37.452;2023-01-13T03:31:51;6.50;;;3.58;;
53881;SDS011;39794;55.782;37.452;2023-01-13T03:34:23;4.57;;;3.10;;
53881;SDS011;39794;55.782;37.452;2023-01-13T03:36:56;7.93;;;3.72;;
53881;SDS011;39794;55.782;37.452;2023-01-13T03:39:31;7.47;;;3.63;;
53881;SDS011;39794;55.782;37.452;2023-01-13T03:42:02;4.90;;;3.38;;
53881;SDS011;39794;55.782;37.452;2023-01-13T03:44:34;9.40;;;3.53;;
53881;SDS011;39794;55.782;37.452;2023-01-13T03:47:10;6.57;;;3.22;;
53881;SDS011;39794;55.782;37.452;2023-01-13T03:49:41;8.93;;;3.70;;
53881;SDS011;39794;55.782;37.452;2023-01-13T03:52:16;6.10;;;3.45;;
53881;SDS011;39794;55.782;37.452;2023-01-13T03:54:46;7.30;;;3.33;;
53881;SDS011;39794;55.782;37.452;2023-01-13T03:57:18;4.95;;;3.40;;
53881;SDS011;39794;55.782;37.452;2023-01-13T03:59:51;5.15;;;3.25;;
53881;SDS011;39794;55.782;37.452;2023-01-13T04:02:28;7.55;;;3.95;;
53881;SDS011;39794;55.782;37.452;2023-01-13T04:05:04;5.40;;;3.15;;
53881;SDS011;39794;55.782;37.452;2023-01-13T04:07:38;5.22;;;3.92;;
53881;SDS011;39794;55.782;37.452;2023-01-13T04:10:11;4.80;;;3.28;;
53881;SDS011;39794;55.782;37.452;2023-01-13T04:12:40;6.00;;;3.35;;
53881;SDS011;39794;55.782;37.452;2023-01-13T04:15:26;6.47;;;3.83;;
53881;SDS011;39794;55.782;37.452;2023-01-13T04:18:13;5.03;;;3.35;;
53881;SDS011;39794;55.782;37.452;2023-01-13T04:20:43;9.77;;;4.80;;
53881;SDS011;39794;55.782;37.452;2023-01-13T04:23:13;7.20;;;4.07;;
53881;SDS011;39794;55.782;37.452;2023-01-13T04:25:44;6.50;;;3.25;;
53881;SDS011;39794;55.782;37.452;2023-01-13T04:28:13;7.07;;;3.45;;
53881;SDS011;39794;55.782;37.452;2023-01-13T04:30:42;8.95;;;4.10;;
53881;SDS011;39794;55.782;37.452;2023-01-13T04:33:13;5.45;;;3.63;;
53881;SDS011;39794;55.782;37.452;2023-01-13T04:35:45;4.70;;;3.22;;
53881;SDS011;39794;55.782;37.452;2023-01-13T04:38:14;6.00;;;2.83;;
53881;SDS011;39794;55.782;37.452;2023-01-13T04:40:43;4.68;;;2.97;;
53881;SDS011;39794;55.782;37.452;2023-01-13T04:43:14;5.55;;;3.50;;
53881;SDS011;39794;55.782;37.452;2023-01-13T04:45:43;5.63;;;3.38;;
53881;SDS011;39794;55.782;37.452;2023-01-13T04:48:13;5.18;;;3.05;;
53881;SDS011;39794;55.782;37.452;2023-01-13T04:50:41;6.85;;;3.95;;
53881;SDS011;39794;55.782;37.452;2023-01-13T04:53:10;4.80;;;3.65;;
53881;SDS011;39794;55.782;37.452;2023-01-13T04:55:40;5.70;;;2.92;;
53881;SDS011;39794;55.782;37.452;2023-01-13T04:58:12;6.33;;;4.37;;
53881;SDS011;39794;55.782;37.452;2023-01-13T05:00:42;10.88;;;3.53;;
53881;SDS011;39794;55.782;37.452;2023-01-13T05:03:10;8.20;;;3.80;;
53881;SDS011;39794;55.782;37.452;2023-01-13T05:05:42;6.97;;;3.95;;
53881;SDS011;39794;55.782;37.452;2023-01-13T05:08:11;6.10;;;3.67;;
53881;SDS011;39794;55.782;37.452;2023-01-13T05:37:30;4.97;;;2.88;;
53881;SDS011;39794;55.782;37.452;2023-01-13T05:39:59;6.60;;;3.75;;
53881;SDS011;39794;55.782;37.452;2023-01-13T05:42:45;5.90;;;3.55;;
53881;SDS011;39794;55.782;37.452;2023-01-13T05:45:32;5.25;;;3.03;;
53881;SDS011;39794;55.782;37.452;2023-01-13T05:48:01;5.78;;;3.42;;
53881;SDS011;39794;55.782;37.452;2023-01-13T05:50:29;7.60;;;3.70;;
53881;SDS011;39794;55.782;37.452;2023-01-13T05:53:05;4.57;;;3.53;;
53881;SDS011;39794;55.782;37.452;2023-01-13T05:55:34;6.72;;;3.33;;
53881;SDS011;39794;55.782;37.452;2023-01-13T05:58:02;5.45;;;4.05;;
53881;SDS011;39794;55.782;37.452;2023-01-13T06:00:32;6.38;;;2.88;;
53881;SDS011;39794;55.782;37.452;2023-01-13T06:03:00;8.68;;;3.70;;
53881;SDS011;39794;55.782;37.452;2023-01-13T06:05:32;5.10;;;3.60;;
53881;SDS011;39794;55.782;37.452;2023-01-13T06:08:01;6.40;;;4.05;;
53881;SDS011;39794;55.782;37.452;2023-01-13T06:10:32;6.13;;;3.65;;
53881;SDS011;39794;55.782;37.452;2023-01-13T06:13:01;6.85;;;3.70;;
53881;SDS011;39794;55.782;37.452;2023-01-13T06:15:30;6.45;;;3.65;;
53881;SDS011;39794;55.782;37.452;2023-01-13T06:18:00;6.07;;;3.88;;
53881;SDS011;39794;55.782;37.452;2023-01-13T06:20:37;5.32;;;3.38;;
53881;SDS011;39794;55.782;37.452;2023-01-13T06:23:06;4.55;;;3.42;;
53881;SDS011;39794;55.782;37.452;2023-01-13T06:25:39;5.15;;;3.42;;
53881;SDS011;39794;55.782;37.452;2023-01-13T06:28:11;6.82;;;3.45;;
53881;SDS011;39794;55.782;37.452;2023-01-13T06:30:41;7.25;;;3.90;;
53881;SDS011;39794;55.782;37.452;2023-01-13T06:33:11;5.38;;;3.40;;
53881;SDS011;39794;55.782;37.452;2023-01-13T06:35:42;9.07;;;4.13;;
53881;SDS011;39794;55.782;37.452;2023-01-13T06:38:12;5.55;;;3.72;;
53881;SDS011;39794;55.782;37.452;2023-01-13T06:40:43;7.88;;;4.00;;
53881;SDS011;39794;55.782;37.452;2023-01-13T06:43:11;5.13;;;3.55;;
53881;SDS011;39794;55.782;37.452;2023-01-13T06:45:44;7.50;;;4.00;;
53881;SDS011;39794;55.782;37.452;2023-01-13T06:48:15;6.93;;;3.70;;
53881;SDS011;39794;55.782;37.452;2023-01-13T06:50:44;4.90;;;3.50;;
53881;SDS011;39794;55.782;37.452;2023-01-13T06:53:17;4.40;;;2.97;;
53881;SDS011;39794;55.782;37.452;2023-01-13T06:55:47;4.55;;;3.50;;
53881;SDS011;39794;55.782;37.452;2023-01-13T06:58:16;5.93;;;3.47;;
53881;SDS011;39794;55.782;37.452;2023-01-13T07:00:44;4.90;;;3.35;;
53881;SDS011;39794;55.782;37.452;2023-01-13T07:03:17;6.05;;;3.35;;
53881;SDS011;39794;55.782;37.452;2023-01-13T07:05:50;6.57;;;3.60;;
53881;SDS011;39794;55.782;37.452;2023-01-13T07:08:21;7.55;;;3.92;;
53881;SDS011;39794;55.782;37.452;2023-01-13T07:10:51;4.90;;;3.45;;
53881;SDS011;39794;55.782;37.452;2023-01-13T07:13:19;10.27;;;3.90;;
53881;SDS011;39794;55.782;37.452;2023-01-13T07:16:06;8.70;;;3.85;;
53881;SDS011;39794;55.782;37.452;2023-01-13T07:18:36;6.75;;;3.25;;
53881;SDS011;39794;55.782;37.452;2023-01-13T07:21:05;9.63;;;3.72;;
53881;SDS011;39794;55.782;37.452;2023-01-13T07:23:35;5.43;;;3.30;;
53881;SDS011;39794;55.782;37.452;2023-01-13T07:26:06;5.88;;;3.67;;
53881;SDS011;39794;55.782;37.452;2023-01-13T07:28:38;7.40;;;3.83;;
53881;SDS011;39794;55.782;37.452;2023-01-13T07:31:12;8.90;;;3.95;;
53881;SDS011;39794;55.782;37.452;2023-01-13T07:33:41;6.78;;;3.25;;
53881;SDS011;39794;55.782;37.452;2023-01-13T07:36:10;4.68;;;3.47;;
53881;SDS011;39794;55.782;37.452;2023-01-13T07:38:41;7.90;;;4.28;;
53881;SDS011;39794;55.782;37.452;2023-01-13T07:41:14;6.18;;;3.20;;
53881;SDS011;39794;55.782;37.452;2023-01-13T07:44:02;8.25;;;3.72;;
53881;SDS011;39794;55.782;37.452;2023-01-13T07:46:32;6.30;;;3.60;;
53881;SDS011;39794;55.782;37.452;2023-01-13T07:49:01;4.28;;;3.15;;
53881;SDS011;39794;55.782;37.452;2023-01-13T07:51:30;5.22;;;2.85;;
53881;SDS011;39794;55.782;37.452;2023-01-13T07:53:59;5.45;;;2.90;;
53881;SDS011;39794;55.782;37.452;2023-01-13T07:56:37;5.65;;;3.35;;
53881;SDS011;39794;55.782;37.452;2023-01-13T07:59:07;8.30;;;3.38;;
53881;SDS011;39794;55.782;37.452;2023-01-13T08:01:36;5.97;;;3.03;;
53881;SDS011;39794;55.782;37.452;2023-01-13T08:04:04;6.10;;;2.92;;
53881;SDS011;39794;55.782;37.452;2023-01-13T08:06:33;5.70;;;3.35;;
53881;SDS011;39794;55.782;37.452;2023-01-13T08:09:04;6.05;;;3.28;;
53881;SDS011;39794;55.782;37.452;2023-01-13T08:11:33;4.20;;;2.97;;
53881;SDS011;39794;55.782;37.452;2023-01-13T08:14:05;4.78;;;2.90;;
53881;SDS011;39794;55.782;37.452;2023-01-13T08:16:33;4.75;;;2.92;;
53881;SDS011;39794;55.782;37.452;2023-01-13T08:19:07;5.63;;;3.27;;
53881;SDS011;39794;55.782;37.452;2023-01-13T08:21:36;5.90;;;3.70;;
53881;SDS011;39794;55.782;37.452;2023-01-13T08:24:04;6.55;;;4.13;;
53881;SDS011;39794;55.782;37.452;2023-01-13T08:26:33;5.65;;;3.65;;
53881;SDS011;39794;55.782;37.452;2023-01-13T08:29:02;7.40;;;3.58;;
53881;SDS011;39794;55.782;37.452;2023-01-13T08:31:31;6.88;;;3.58;;
53881;SDS011;39794;55.782;37.452;2023-01-13T08:34:03;9.15;;;4.13;;
53881;SDS011;39794;55.782;37.452;2023-01-13T08:36:32;7.60;;;4.10;;
53881;SDS011;39794;55.782;37.452;2023-01-13T08:39:00;8.00;;;3.72;;
53881;SDS011;39794;55.782;37.452;2023-01-13T08:41:31;5.25;;;3.35;;
53881;SDS011;39794;55.782;37.452;2023-01-13T08:44:17;3.53;;;2.90;;
53881;SDS011;39794;55.782;37.452;2023-01-13T08:46:48;4.88;;;3.80;;
53881;SDS011;39794;55.782;37.452;2023-01-13T08:49:17;4.70;;;3.10;;
53881;SDS011;39794;55.782;37.452;2023-01-13T08:51:45;7.88;;;3.78;;
53881;SDS011;39794;55.782;37.452;2023-01-13T08:54:20;6.72;;;3.40;;
53881;SDS011;39794;55.782;37.452;2023-01-13T08:56:49;4.88;;;3.60;;
53881;SDS011;39794;55.782;37.452;2023-01-13T08:59:26;5.35;;;4.13;;
53881;SDS011;39794;55.782;37.452;2023-01-13T09:01:57;5.53;;;3.80;;
53881;SDS011;39794;55.782;37.452;2023-01-13T09:04:26;6.75;;;3.78;;
53881;SDS011;39794;55.782;37.452;2023-01-13T09:06:56;6.00;;;4.03;;
53881;SDS011;39794;55.782;37.452;2023-01-13T09:09:28;8.05;;;4.45;;
53881;SDS011;39794;55.782;37.452;2023-01-13T09:11:57;5.18;;;2.97;;
53881;SDS011;39794;55.782;37.452;2023-01-13T09:14:43;8.57;;;4.82;;
53881;SDS011;39794;55.782;37.452;2023-01-13T09:17:13;8.30;;;4.25;;
53881;SDS011;39794;55.782;37.452;2023-01-13T09:19:44;9.13;;;5.10;;
53881;SDS011;39794;55.782;37.452;2023-01-13T09:22:13;8.80;;;4.47;;
53881;SDS011;39794;55.782;37.452;2023-01-13T09:24:43;9.48;;;4.57;;
53881;SDS011;39794;55.782;37.452;2023-01-13T09:27:16;6.38;;;3.88;;
53881;SDS011;39794;55.782;37.452;2023-01-13T09:29:47;5.53;;;4.05;;
53881;SDS011;39794;55.782;37.452;2023-01-13T09:32:23;6.63;;;4.30;;
53881;SDS011;39794;55.782;37.452;2023-01-13T09:35:01;10.07;;;5.10;;
53881;SDS011;39794;55.782;37.452;2023-01-13T09:37:32;5.93;;;3.85;;
53881;SDS011;39794;55.782;37.452;2023-01-13T09:40:05;6.97;;;4.03;;
53881;SDS011;39794;55.782;37.452;2023-01-13T09:42:40;6.20;;;4.07;;
53881;SDS011;39794;55.782;37.452;2023-01-13T09:45:40;6.57;;;4.35;;
53881;SDS011;39794;55.782;37.452;2023-01-13T09:48:17;5.97;;;4.45;;
53881;SDS011;39794;55.782;37.452;2023-01-13T09:50:56;6.07;;;4.53;;
53881;SDS011;39794;55.782;37.452;2023-01-13T09:53:35;7.25;;;4.70;;
53881;SDS011;39794;55.782;37.452;2023-01-13T09:56:10;6.05;;;3.85;;
53881;SDS011;39794;55.782;37.452;2023-01-13T09:58:40;9.07;;;4.57;;
53881;SDS011;39794;55.782;37.452;2023-01-13T10:01:13;7.88;;;4.75;;
53881;SDS011;39794;55.782;37.452;2023-01-13T10:03:47;9.35;;;4.03;;
53881;SDS011;39794;55.782;37.452;2023-01-13T10:06:18;7.25;;;4.28;;
53881;SDS011;39794;55.782;37.452;2023-01-13T10:08:49;6.70;;;4.43;;
53881;SDS011;39794;55.782;37.452;2023-01-13T10:11:22;5.68;;;3.65;;
53881;SDS011;39794;55.782;37.452;2023-01-13T10:14:14;6.85;;;3.47;;
53881;SDS011;39794;55.782;37.452;2023-01-13T10:16:46;7.30;;;3.72;;
53881;SDS011;39794;55.782;37.452;2023-01-13T10:19:23;8.88;;;4.47;;
53881;SDS011;39794;55.782;37.452;2023-01-13T10:25:02;9.07;;;3.85;;
53881;SDS011;39794;55.782;37.452;2023-01-13T10:27:38;6.18;;;4.03;;
53881;SDS011;39794;55.782;37.452;2023-01-13T10:30:15;7.60;;;4.50;;
53881;SDS011;39794;55.782;37.452;2023-01-13T10:32:46;9.10;;;4.32;;
53881;SDS011;39794;55.782;37.452;2023-01-13T10:38:23;5.95;;;4.00;;
53881;SDS011;39794;55.782;37.452;2023-01-13T10:40:54;8.32;;;4.07;;
53881;SDS011;39794;55.782;37.452;2023-01-13T10:43:24;18.88;;;7.47;;
53881;SDS011;39794;55.782;37.452;2023-01-13T10:45:56;6.88;;;4.40;;
53881;SDS011;39794;55.782;37.452;2023-01-13T10:48:37;7.55;;;4.10;;
53881;SDS011;39794;55.782;37.452;2023-01-13T10:53:59;5.88;;;4.13;;
53881;SDS011;39794;55.782;37.452;2023-01-13T10:56:29;8.88;;;3.85;;
53881;SDS011;39794;55.782;37.452;2023-01-13T10:59:10;7.13;;;3.90;;
53881;SDS011;39794;55.782;37.452;2023-01-13T11:01:53;6.78;;;4.40;;
53881;SDS011;39794;55.782;37.452;2023-01-13T11:04:28;8.57;;;4.30;;
53881;SDS011;39794;55.782;37.452;2023-01-13T11:07:00;6.30;;;3.40;;
53881;SDS011;39794;55.782;37.452;2023-01-13T11:09:33;8.32;;;3.90;;
53881;SDS011;39794;55.782;37.452;2023-01-13T11:12:02;7.63;;;3.88;;
53881;SDS011;39794;55.782;37.452;2023-01-13T11:14:35;6.70;;;3.92;;
53881;SDS011;39794;55.782;37.452;2023-01-13T11:17:15;8.10;;;4.15;;
53881;SDS011;39794;55.782;37.452;2023-01-13T11:20:12;9.77;;;4.20;;
53881;SDS011;39794;55.782;37.452;2023-01-13T11:22:46;6.63;;;3.28;;
53881;SDS011;39794;55.782;37.452;2023-01-13T11:25:18;6.22;;;4.10;;
53881;SDS011;39794;55.782;37.452;2023-01-13T11:27:54;6.18;;;4.07;;
53881;SDS011;39794;55.782;37.452;2023-01-13T11:30:28;6.73;;;4.00;;
53881;SDS011;39794;55.782;37.452;2023-01-13T11:33:09;8.23;;;4.18;;
53881;SDS011;39794;55.782;37.452;2023-01-13T11:35:45;6.57;;;4.53;;
53881;SDS011;39794;55.782;37.452;2023-01-13T11:38:24;5.97;;;4.00;;
53881;SDS011;39794;55.782;37.452;2023-01-13T11:40:56;8.05;;;3.95;;
53881;SDS011;39794;55.782;37.452;2023-01-13T11:43:31;9.98;;;4.70;;
53881;SDS011;39794;55.782;37.452;2023-01-13T11:46:02;6.78;;;4.40;;
53881;SDS011;39794;55.782;37.452;2023-01-13T11:48:31;10.00;;;4.70;;
53881;SDS011;39794;55.782;37.452;2023-01-13T11:51:03;7.45;;;4.50;;
53881;SDS011;39794;55.782;37.452;2023-01-13T11:56:35;7.22;;;3.75;;
53881;SDS011;39794;55.782;37.452;2023-01-13T11:59:14;9.13;;;4.25;;
53881;SDS011;39794;55.782;37.452;2023-01-13T12:02:01;7.50;;;4.55;;
53881;SDS011;39794;55.782;37.452;2023-01-13T12:07:08;7.82;;;4.13;;
53881;SDS011;39794;55.782;37.452;2023-01-13T12:09:54;6.68;;;3.85;;
53881;SDS011;39794;55.782;37.452;2023-01-13T12:12:41;7.15;;;4.25;;
53881;SDS011;39794;55.782;37.452;2023-01-13T12:15:19;6.32;;;3.92;;
53881;SDS011;39794;55.782;37.452;2023-01-13T12:18:02;7.22;;;3.67;;
53881;SDS011;39794;55.782;37.452;2023-01-13T12:20:38;7.38;;;4.30;;
53881;SDS011;39794;55.782;37.452;2023-01-13T12:23:12;9.18;;;4.65;;
53881;SDS011;39794;55.782;37.452;2023-01-13T12:25:49;6.00;;;3.65;;
53881;SDS011;39794;55.782;37.452;2023-01-13T12:28:21;7.82;;;3.90;;
53881;SDS011;39794;55.782;37.452;2023-01-13T12:30:52;7.18;;;4.75;;
53881;SDS011;39794;55.782;37.452;2023-01-13T12:33:28;5.35;;;3.55;;
53881;SDS011;39794;55.782;37.452;2023-01-13T12:36:11;7.65;;;4.20;;
53881;SDS011;39794;55.782;37.452;2023-01-13T12:38:45;8.50;;;5.05;;
53881;SDS011;39794;55.782;37.452;2023-01-13T12:41:20;10.75;;;5.72;;
53881;SDS011;39794;55.782;37.452;2023-01-13T12:44:06;10.57;;;5.53;;
53881;SDS011;39794;55.782;37.452;2023-01-13T12:46:46;11.07;;;5.00;;
53881;SDS011;39794;55.782;37.452;2023-01-13T12:49:26;7.05;;;4.55;;
53881;SDS011;39794;55.782;37.452;2023-01-13T12:52:02;8.68;;;4.90;;
53881;SDS011;39794;55.782;37.452;2023-01-13T12:57:41;7.28;;;4.35;;
53881;SDS011;39794;55.782;37.452;2023-01-13T13:03:18;8.15;;;4.30;;
53881;SDS011;39794;55.782;37.452;2023-01-13T13:05:59;9.23;;;4.93;;
53881;SDS011;39794;55.782;37.452;2023-01-13T13:08:42;8.63;;;5.65;;
53881;SDS011;39794;55.782;37.452;2023-01-13T13:11:22;9.13;;;4.95;;
53881;SDS011;39794;55.782;37.452;2023-01-13T13:17:40;15.70;;;6.13;;
53881;SDS011;39794;55.782;37.452;2023-01-13T13:26:14;9.65;;;5.30;;
53881;SDS011;39794;55.782;37.452;2023-01-13T13:28:55;8.30;;;4.85;;
53881;SDS011;39794;55.782;37.452;2023-01-13T13:31:40;6.85;;;4.40;;
53881;SDS011;39794;55.782;37.452;2023-01-13T13:34:32;10.63;;;5.18;;
53881;SDS011;39794;55.782;37.452;2023-01-13T13:37:09;8.18;;;5.28;;
53881;SDS011;39794;55.782;37.452;2023-01-13T13:39:43;8.27;;;4.43;;
53881;SDS011;39794;55.782;37.452;2023-01-13T13:42:34;10.02;;;5.68;;
53881;SDS011;39794;55.782;37.452;2023-01-13T13:45:23;10.20;;;4.60;;
53881;SDS011;39794;55.782;37.452;2023-01-13T13:48:17;9.88;;;5.40;;
53881;SDS011;39794;55.782;37.452;2023-01-13T13:50:48;9.77;;;5.78;;
53881;SDS011;39794;55.782;37.452;2023-01-13T13:53:21;10.65;;;6.07;;
53881;SDS011;39794;55.782;37.452;2023-01-13T13:55:52;8.73;;;5.25;;
53881;SDS011;39794;55.782;37.452;2023-01-13T13:58:22;10.77;;;5.43;;
53881;SDS011;39794;55.782;37.452;2023-01-13T14:00:52;11.77;;;5.25;;
53881;SDS011;39794;55.782;37.452;2023-01-13T14:03:22;11.18;;;5.40;;
53881;SDS011;39794;55.782;37.452;2023-01-13T14:05:56;8.30;;;5.60;;
53881;SDS011;39794;55.782;37.452;2023-01-13T14:08:30;9.10;;;5.67;;
53881;SDS011;39794;55.782;37.452;2023-01-13T14:11:03;8.68;;;5.47;;
53881;SDS011;39794;55.782;37.452;2023-01-13T14:14:01;10.85;;;5.88;;
53881;SDS011;39794;55.782;37.452;2023-01-13T14:16:30;11.45;;;5.55;;
53881;SDS011;39794;55.782;37.452;2023-01-13T14:19:01;10.10;;;5.78;;
53881;SDS011;39794;55.782;37.452;2023-01-13T14:21:34;11.00;;;5.60;;
53881;SDS011;39794;55.782;37.452;2023-01-13T14:24:04;9.73;;;6.03;;
53881;SDS011;39794;55.782;37.452;2023-01-13T14:26:41;12.38;;;6.45;;
53881;SDS011;39794;55.782;37.452;2023-01-13T14:29:12;10.98;;;5.80;;
53881;SDS011;39794;55.782;37.452;2023-01-13T14:31:47;11.38;;;6.65;;
53881;SDS011;39794;55.782;37.452;2023-01-13T14:34:16;13.95;;;7.78;;
53881;SDS011;39794;55.782;37.452;2023-01-13T14:36:59;10.13;;;6.40;;
53881;SDS011;39794;55.782;37.452;2023-01-13T14:39:35;12.10;;;6.43;;
53881;SDS011;39794;55.782;37.452;2023-01-13T14:42:09;12.70;;;6.50;;
53881;SDS011;39794;55.782;37.452;2023-01-13T14:47:17;10.55;;;5.60;;
53881;SDS011;39794;55.782;37.452;2023-01-13T14:49:50;12.88;;;6.50;;
53881;SDS011;39794;55.782;37.452;2023-01-13T14:52:27;11.30;;;6.75;;
53881;SDS011;39794;55.782;37.452;2023-01-13T14:55:19;12.52;;;6.35;;
53881;SDS011;39794;55.782;37.452;2023-01-13T14:57:51;9.57;;;5.78;;
53881;SDS011;39794;55.782;37.452;2023-01-13T15:00:21;9.00;;;5.78;;
53881;SDS011;39794;55.782;37.452;2023-01-13T15:03:02;10.70;;;6.35;;
53881;SDS011;39794;55.782;37.452;2023-01-13T15:05:34;14.38;;;6.82;;
53881;SDS011;39794;55.782;37.452;2023-01-13T15:11:13;16.08;;;8.73;;
53881;SDS011;39794;55.782;37.452;2023-01-13T15:13:49;18.40;;;9.40;;
53881;SDS011;39794;55.782;37.452;2023-01-13T15:16:23;14.18;;;7.70;;
53881;SDS011;39794;55.782;37.452;2023-01-13T15:18:52;13.07;;;6.50;;
53881;SDS011;39794;55.782;37.452;2023-01-13T15:21:24;12.48;;;6.93;;
53881;SDS011;39794;55.782;37.452;2023-01-13T15:23:54;12.23;;;7.43;;
53881;SDS011;39794;55.782;37.452;2023-01-13T15:26:26;14.45;;;8.13;;
53881;SDS011;39794;55.782;37.452;2023-01-13T15:28:56;13.77;;;7.70;;
53881;SDS011;39794;55.782;37.452;2023-01-13T15:31:26;14.90;;;7.97;;
53881;SDS011;39794;55.782;37.452;2023-01-13T15:33:55;14.73;;;6.90;;
53881;SDS011;39794;55.782;37.452;2023-01-13T15:36:25;12.00;;;7.07;;
53881;SDS011;39794;55.782;37.452;2023-01-13T15:38:56;17.13;;;7.85;;
53881;SDS011;39794;55.782;37.452;2023-01-13T15:41:25;16.00;;;8.05;;
53881;SDS011;39794;55.782;37.452;2023-01-13T15:44:13;15.98;;;8.60;;
53881;SDS011;39794;55.782;37.452;2023-01-13T15:47:00;13.48;;;6.85;;
53881;SDS011;39794;55.782;37.452;2023-01-13T15:49:33;15.35;;;7.15;;
53881;SDS011;39794;55.782;37.452;2023-01-13T15:52:04;12.50;;;7.05;;
53881;SDS011;39794;55.782;37.452;2023-01-13T15:54:42;15.18;;;7.40;;
53881;SDS011;39794;55.782;37.452;2023-01-13T15:57:12;14.48;;;7.50;;
53881;SDS011;39794;55.782;37.452;2023-01-13T15:59:48;16.80;;;7.25;;
53881;SDS011;39794;55.782;37.452;2023-01-13T16:02:17;13.00;;;7.25;;
53881;SDS011;39794;55.782;37.452;2023-01-13T16:04:45;14.73;;;7.38;;
53881;SDS011;39794;55.782;37.452;2023-01-13T16:07:17;14.68;;;7.90;;
53881;SDS011;39794;55.782;37.452;2023-01-13T16:09:47;14.98;;;7.60;;
53881;SDS011;39794;55.782;37.452;2023-01-13T16:12:18;14.68;;;7.78;;
53881;SDS011;39794;55.782;37.452;2023-01-13T16:14:46;18.70;;;6.82;;
53881;SDS011;39794;55.782;37.452;2023-01-13T16:17:15;12.07;;;7.07;;
53881;SDS011;39794;55.782;37.452;2023-01-13T16:19:45;14.63;;;7.05;;
53881;SDS011;39794;55.782;37.452;2023-01-13T16:22:14;13.07;;;7.30;;
53881;SDS011;39794;55.782;37.452;2023-01-13T16:24:46;15.52;;;7.55;;